WetterOnline ( https://www.wetteronline.de )

Wetter aktuell Marienberg

Aktuelles Wetter: Marienberg (640m)

6-stündlich | Neueste Meldungen
Ortszeit Temperatur Wetter
Mo, 17.06. 2:00 11.8° C wolkig
So, 16.06. 20:00 18.9° C leicht bewölkt
So, 16.06. 14:00 19.1° C bewölkt
So, 16.06. 8:00 14.0° C fast wolkenlos
So, 16.06. 2:00 10.6° C bewölkt
Sa, 15.06. 20:00 17.5° C bewölkt
Sa, 15.06. 14:00 16.1° C wolkig
Sa, 15.06. 8:00 15.6° C wolkig
Ortszeit Temperatur Wetter
Mo, 17.06. 2:00 11.8° C wolkig
Mo, 17.06. 1:50 11.8° C wolkig
Mo, 17.06. 1:40 12.0° C bedeckt
Mo, 17.06. 1:30 11.9° C bedeckt
Mo, 17.06. 1:20 11.9° C bedeckt
Mo, 17.06. 1:10 12.4° C bedeckt
Mo, 17.06. 1:00 13.5° C bewölkt
Mo, 17.06. 0:30 14.0° C bedeckt
Mo, 17.06. 0:00 16.0° C bewölkt
So, 16.06. 23:30 15.2° C wolkig
So, 16.06. 23:00 16.0° C wolkig
Ortszeit Relative Feuchte Sichtweite
Mo, 17.06. 2:00 85% 65 km
So, 16.06. 20:00 50% 60 km
So, 16.06. 14:00 48% 60 km
So, 16.06. 8:00 63% 65 km
So, 16.06. 2:00 74% >70 km
Sa, 15.06. 20:00 50% 65 km
Sa, 15.06. 14:00 65% 60 km
Sa, 15.06. 8:00 70% >70 km
Ortszeit Relative Feuchte Sichtweite
Mo, 17.06. 2:00 85% 65 km
Mo, 17.06. 1:50 85% -
Mo, 17.06. 1:40 84% -
Mo, 17.06. 1:30 87% 60 km
Mo, 17.06. 1:20 87% -
Mo, 17.06. 1:10 83% -
Mo, 17.06. 1:00 76% 65 km
Mo, 17.06. 0:30 74% >70 km
Mo, 17.06. 0:00 61% 65 km
So, 16.06. 23:30 64% >70 km
So, 16.06. 23:00 61% >70 km
Ortszeit Niederschlagsmenge Niederschlagsart
Mo, 17.06. 2:00 0.1 l/m2 in 6 Std. Regen
So, 16.06. 20:00 0.0 l/m2 in 12 Std. -
So, 16.06. 14:00 0.0 l/m2 in 6 Std. -
So, 16.06. 8:00 0.0 l/m2 in 12 Std. -
So, 16.06. 2:00 0.0 l/m2 in 6 Std. -
Sa, 15.06. 20:00 2 l/m2 in 12 Std. -
Sa, 15.06. 14:00 2 l/m2 in 6 Std. Regen
Sa, 15.06. 8:00 0.0 l/m2 in 12 Std. -
Ortszeit Niederschlagsmenge Niederschlagsart
Mo, 17.06. 2:00 0.0 l/m2 in 1 Std. Regen
Mo, 17.06. 1:50 keine Meldung -
Mo, 17.06. 1:40 keine Meldung -
Mo, 17.06. 1:30 0.0 l/m2 in 30 Min -
Mo, 17.06. 1:20 keine Meldung -
Mo, 17.06. 1:10 keine Meldung -
Mo, 17.06. 1:00 <0.05 l/m2 in 1 Std. Regen
Mo, 17.06. 0:30 <0.05 l/m2 in 30 Min Schneeregen
Mo, 17.06. 0:00 0.0 l/m2 in 1 Std. -
So, 16.06. 23:30 0.0 l/m2 in 30 Min -
So, 16.06. 23:00 0.0 l/m2 in 1 Std. -
Ortszeit Stärke Spitze Richtung
km/h Bft. km/h Grad Sektor
Mo, 17.06. 2:00 4 1 29 240° SW
So, 16.06. 20:00 9 2 30 210° SW
So, 16.06. 14:00 13 3 31 200° S
So, 16.06. 8:00 11 2 18 240° SW
So, 16.06. 2:00 4 1 25 190° S
Sa, 15.06. 20:00 9 2 41 260° W
Sa, 15.06. 14:00 24 4 41 260° W
Sa, 15.06. 8:00 11 2 35 220° SW
Ortszeit Stärke Spitze Richtung
km/h Bft. km/h Grad Sektor
Mo, 17.06. 2:00 4 1 7 240° SW
Mo, 17.06. 1:50 4 1 - 240° SW
Mo, 17.06. 1:40 4 1 - 230° SW
Mo, 17.06. 1:30 4 1 7 130° SO
Mo, 17.06. 1:20 4 1 - 130° SO
Mo, 17.06. 1:10 4 1 - 190° S
Mo, 17.06. 1:00 4 1 29 170° S
Mo, 17.06. 0:30 6 1 28 230° SW
Mo, 17.06. 0:00 7 2 14 220° SW
So, 16.06. 23:30 6 1 11 210° SW
So, 16.06. 23:00 7 2 14 200° S
Ortszeit Untergrenze Bedeckung Gattung
total tief tief mittel hoch
Mo, 17.06. 2:00 2700 m 8/8 1/8 - - -
So, 16.06. 20:00 1500 m 6/8 1/8 - - -
So, 16.06. 14:00 2700 m 7/8 7/8 - - -
So, 16.06. 8:00 8700 m 2/8 0/8 - - -
So, 16.06. 2:00 5100 m 7/8 7/8 - - -
Sa, 15.06. 20:00 1500 m 7/8 7/8 - - -
Sa, 15.06. 14:00 780 m 6/8 3/8 - - -
Sa, 15.06. 8:00 2100 m 8/8 1/8 - - -
Ortszeit Bedeckungsgrad in Achtel und Wolkenuntergrenze
Mo, 17.06. 2:00 1(2700m) 7(3300m) 8(4800m)
Mo, 17.06. 1:50 1(2700m) 7(3300m) 8(4800m)
Mo, 17.06. 1:40 8
Mo, 17.06. 1:30 8(4800m)
Mo, 17.06. 1:20 8(4800m)
Mo, 17.06. 1:10 8
Mo, 17.06. 1:00 3(2100m) 7(2700m) 7(5400m)
Mo, 17.06. 0:30 1(1350m) 6(2100m) 8(2700m)
Mo, 17.06. 0:00 3(1500m) 6(1800m) 7(3600m)
So, 16.06. 23:30 2(2100m) 7(5700m) 7(7200m)
So, 16.06. 23:00 1(2400m) 5(6900m) 8(7800m)
Ortszeit Luftdruck NN (hPa) Tendenz (hPa in 3 Std.)
Mo, 17.06. 2:00 1013 + 0,4
So, 16.06. 20:00 1009 + 0,3
So, 16.06. 14:00 1010 - 0,5
So, 16.06. 8:00 1012 + 0,4
So, 16.06. 2:00 1012 + 0,3
Sa, 15.06. 20:00 1009 + 0,4
Sa, 15.06. 14:00 1008 + 0,5
Sa, 15.06. 8:00 1006 - 0,9
Ortszeit Luftdruck NN (hPa) Tendenz (hPa in 3 Std.)
Mo, 17.06. 2:00 1013 + 0,4
Mo, 17.06. 1:50 1013 keine Meldung
Mo, 17.06. 1:40 1013 keine Meldung
Mo, 17.06. 1:30 1013 + 0,5
Mo, 17.06. 1:20 1013 keine Meldung
Mo, 17.06. 1:10 1013 keine Meldung
Mo, 17.06. 1:00 1012 + 0,6
Mo, 17.06. 0:30 1012 + 1,0
Mo, 17.06. 0:00 1012 + 1,0
So, 16.06. 23:30 1012 + 1,0
So, 16.06. 23:00 1011 + 1,1
Ortszeit Schneehöhe (cm)
Mo, 17.06. 2:00 0
So, 16.06. 20:00 0
So, 16.06. 14:00 0
So, 16.06. 8:00 0
So, 16.06. 2:00 0
Sa, 15.06. 20:00 0
Sa, 15.06. 14:00 0
Sa, 15.06. 8:00 0
Ortszeit Schneehöhe (cm)
Mo, 17.06. 2:00 0
Mo, 17.06. 1:50 0
Mo, 17.06. 1:40 -
Mo, 17.06. 1:30 0
Mo, 17.06. 1:20 0
Mo, 17.06. 1:10 -
Mo, 17.06. 1:00 0
Mo, 17.06. 0:30 0
Mo, 17.06. 0:00 0
So, 16.06. 23:30 0
So, 16.06. 23:00 0
Link zu dieser Seite / Seite empfehlen

Das Wetter in ...